Flight Track Log - Related Links

Times and Time Zones

All times are in EST time to prevent confusion due to time zone crossing. See the N502QS flight status page for this flight to view local times or setup timezone preferences in your user account.

Time Position Orientation Groundspeed Altitude Reporting Facility
EST Latitude Longitude Course Direction KTS MPH feet Rate Location/Type
Sun 11:33:15 AM 48.7667 -122.5333 141° Southeast 150 173 1,700  Level Vancouver Center
Sun 11:34:15 AM 48.7167 -122.5667 204° Southwest 180 207 4,300 3,500 Climbing Vancouver Center
Sun 11:35:15 AM 48.6500 -122.5667 180° South 250 288 8,700 2,315 Climbing Vancouver Center
Sun 11:36:22 AM 48.5908 -122.6047 203° Southwest 260 299 9,200 1,359 Climbing Seattle Center
Sun 11:37:00 AM 48.3572 -122.4550 161° South  Level Estimated
Sun 11:37:23 AM 48.5169 -122.6297 193° South 268 308 11,600  Level Seattle Center
Sun 11:38:00 AM 48.2846 -122.4413 141° Southeast  Level Estimated
Sun 11:38:23 AM 48.4231 -122.6581 191° South 335 386 12,000  Level Seattle Center
Sun 11:39:24 AM 48.3189 -122.6836 189° South 370 426 12,000  Level Seattle Center
Sun 11:40:24 AM 48.2189 -122.7044 188° South 362 417 12,000  Level Seattle Center
Sun 11:40:29 AM 48.2011 -122.7094 191° South 366 421 12,000  Level Seattle Center
Sun 11:41:18 AM 48.1172 -122.7289 189° South 358 412 12,000  Level Seattle Center
Sun 11:41:25 AM 48.1206 -122.7272 18° North 359 413 12,000 -909 Level Seattle Center
Sun 11:42:24 AM 48.0203 -122.7492 188° South 317 365 11,000 -885 Descending Seattle Center
Sun 11:42:26 AM 48.0275 -122.7492 360° North 336 387 11,100  Climbing Seattle Center
Sun 11:43:01 AM 47.9708 -122.7564 185° South 269 310 11,000 -400 Descending Seattle Center
Sun 11:43:26 AM 47.9517 -122.7525 172° South 278 320 10,700 -1,367 Descending Seattle Center
Sun 11:44:20 AM 47.8703 -122.7353 172° South 278 320 9,200 -1,672 Descending Seattle Center
Sun 11:44:27 AM 47.8597 -122.7319 168° South 276 318 9,000 -1,800 Descending Seattle Center
Sun 11:45:20 AM 47.8033 -122.7061 163° South 269 310 7,400 -1,869 Descending Seattle Center
Sun 11:45:28 AM 47.7961 -122.6908 125° Southeast 271 312 7,100 -2,559 Descending Seattle Center
Sun 11:46:28 AM 47.7647 -122.5903 115° Southeast 272 313 4,500 -2,556 Descending Seattle Center
Sun 11:47:16 AM 47.7425 -122.5156 114° Southeast 257 296 2,500 -2,066 Descending Seattle Center
Sun 11:47:29 AM 47.7358 -122.4942 115° Southeast 258 297 2,400 -200 Descending Seattle Center
Sun 11:48:16 AM 47.7067 -122.4531 137° Southeast 182 209 2,300 -200 Descending Seattle Center
Sun 11:48:29 AM 47.6975 -122.4444 148° Southeast 179 206 2,200 -98 Descending Seattle Center
Sun 11:49:17 AM 47.6706 -122.4236 152° Southeast 129 148 2,200  Level Seattle Center
Sun 11:49:30 AM 47.6631 -122.4158 145° Southeast 146 168 2,200  Level Seattle Center
Sun 11:50:11 AM 47.6389 -122.3950 150° Southeast 140 161 2,200 -98 Level Seattle Center
Sun 11:50:31 AM 47.6281 -122.3856 150° Southeast 145 167 2,100 -590 Descending Seattle Center
Sun 11:51:12 AM 47.6081 -122.3694 151° Southeast 125 144 1,600 -600 Descending Seattle Center
Sun 11:51:31 AM 47.6008 -122.3633 150° Southeast 107 123 1,500 -492 Descending Seattle Center
Sun 11:52:13 AM 47.5850 -122.3492 149° Southeast 92 106 1,100 -689 Descending Seattle Center
Sun 11:52:32 AM 47.5761 -122.3422 152° Southeast 102 117 800 -600 Descending Seattle Center
Sun 11:53:13 AM 47.5594 -122.3272 149° Southeast 103 119 500 -500 Descending Seattle Center
Sun 11:53:32 AM 47.5519 -122.3208 150° Southeast 103 119 300 8,625 Descending Seattle Center
Sun 11:54:33 AM 47.5286 -122.3017 151° Southeast 105 121 12,000 5,754 Climbing Seattle Center
Sun 11:55:34 AM 47.5319 -122.3019 357° North 34 39 12,000  Level Seattle Center

Login

Don't have an account? Register now (free) for customized features, flight alerts, and more!